Yambol, Bulgaria
Current Conditions -  °F | °C
As of 8:30 AM on Thursday 18 Dec 2014 (Local Time) from LBBG Reporting Station
Light Rain Light Rain  
Wind Chill: 41°   Ceiling: 4000
Heat Index: 45°   Visibility: 4mi
Dew Point: 45°   Wind: 7mph
Humidity: 100%   Direction: 250°WSW
Pressure: 29.94"   Gusts: NA
Location:  42.48°N, 26.5°E
Report Text: LBBG 180530Z 25003MPS 6000 -RA SCT008 BKN040 07/07 Q1014 R99/29//95 NOSIG
Loading
Personal Weather Stations






























Interactive Weather Map New forecast layout! Learn more

10-Day Weather Forecast

Advertisements
Track Severe Weather on mobile